createdAt,value
2023-03-23T15:58:11.426Z,100502.91
2023-03-23T15:58:36.067Z,100505.33
2023-03-23T15:59:01.198Z,100506.05
2023-03-23T15:59:24.503Z,100506.94
2023-03-23T15:59:47.437Z,100506.39
2023-03-23T16:00:11.261Z,100502.84
2023-03-23T16:00:35.889Z,100502.73
2023-03-23T16:00:59.779Z,100509.84
2023-03-23T16:01:26.258Z,100509.39
2023-03-23T16:01:49.240Z,100508.91
2023-03-23T16:02:19.992Z,100506.66
2023-03-23T16:02:43.853Z,100507.48
2023-03-23T16:03:08.346Z,100510.35
2023-03-23T16:03:42.404Z,100509.77
2023-03-23T16:04:06.670Z,100507.98
2023-03-23T16:04:30.966Z,100508.66
2023-03-23T16:04:53.914Z,100505.21
2023-03-23T16:05:16.972Z,100508.73
2023-03-23T16:05:40.030Z,100510.24
2023-03-23T16:06:03.487Z,100511.09
2023-03-23T16:06:26.834Z,100508.37
2023-03-23T16:06:50.337Z,100511.02
2023-03-23T16:07:14.267Z,100507.73
2023-03-23T16:07:38.305Z,100508.20
2023-03-23T16:08:01.200Z,100508.49
2023-03-23T16:08:28.546Z,100510.54
2023-03-23T16:08:56.953Z,100507.81
2023-03-23T16:09:20.821Z,100513.27
2023-03-23T16:09:44.702Z,100510.01
2023-03-23T16:10:08.139Z,100511.48
2023-03-23T16:10:33.267Z,100512.98
2023-03-23T16:10:56.627Z,100510.15
2023-03-23T16:11:19.810Z,100511.94
2023-03-23T16:11:44.572Z,100510.89
2023-03-23T16:12:09.880Z,100510.09
2023-03-23T16:12:33.904Z,100511.67
2023-03-23T16:12:57.038Z,100511.38
2023-03-23T16:13:20.239Z,100510.07
2023-03-23T16:13:43.173Z,100510.38
2023-03-23T16:14:06.253Z,100512.64
2023-03-23T16:14:29.470Z,100517.52
2023-03-23T16:14:53.710Z,100515.66
2023-03-23T16:15:17.241Z,100514.73
2023-03-23T16:15:43.521Z,100513.61
2023-03-23T16:16:12.121Z,100515.86
2023-03-23T16:16:41.437Z,100513.39
2023-03-23T16:17:06.494Z,100513.73
2023-03-23T16:17:30.823Z,100517.05
2023-03-23T16:17:55.943Z,100515.06
2023-03-23T16:18:20.816Z,100515.71
2023-03-23T16:18:44.440Z,100517.13
2023-03-23T16:19:08.689Z,100517.41
2023-03-23T16:19:33.224Z,100518.63
2023-03-23T16:19:56.339Z,100516.44
2023-03-23T16:20:21.007Z,100514.25
2023-03-23T16:20:44.510Z,100518.48
2023-03-23T16:21:08.042Z,100519.30
2023-03-23T16:21:31.355Z,100517.32
2023-03-23T16:21:54.317Z,100516.66
2023-03-23T16:22:20.550Z,100517.71
2023-03-23T16:22:45.396Z,100517.73
2023-03-23T16:23:12.519Z,100516.58
2023-03-23T16:23:38.092Z,100518.12
2023-03-23T16:24:02.668Z,100520.36
2023-03-23T16:24:26.561Z,100521.55
2023-03-23T16:24:51.196Z,100518.45
2023-03-23T16:25:14.669Z,100519.96
2023-03-23T16:25:41.021Z,100519.78
2023-03-23T16:26:04.630Z,100518.50
2023-03-23T16:26:27.702Z,100517.44
2023-03-23T16:26:50.767Z,100519.11
2023-03-23T16:27:14.383Z,100519.02
2023-03-23T16:27:37.906Z,100518.06
2023-03-23T16:28:01.428Z,100521.38
2023-03-23T16:28:24.852Z,100520.56
2023-03-23T16:28:53.208Z,100519.46
2023-03-23T16:29:34.351Z,100519.17
2023-03-23T16:30:04.688Z,100520.76
2023-03-23T16:30:33.128Z,100521.61
2023-03-23T16:30:56.961Z,100520.52
2023-03-23T16:31:21.020Z,100519.81
2023-03-23T16:31:44.185Z,100522.40
2023-03-23T16:32:07.952Z,100521.44
2023-03-23T16:32:32.070Z,100520.58
2023-03-23T16:32:57.429Z,100523.02
2023-03-23T16:33:21.074Z,100523.96
2023-03-23T16:33:44.457Z,100523.14
2023-03-23T16:34:07.979Z,100521.85
2023-03-23T16:34:33.978Z,100522.59
2023-03-23T16:34:57.071Z,100521.59
2023-03-23T16:35:21.616Z,100524.20
2023-03-23T16:35:46.939Z,100524.67
2023-03-23T16:36:11.872Z,100520.78
2023-03-23T16:36:39.447Z,100525.66
2023-03-23T16:37:04.604Z,100524.90
2023-03-23T16:37:33.355Z,100526.78
2023-03-23T16:38:08.407Z,100522.00
2023-03-23T16:38:32.566Z,100523.64
2023-03-23T16:38:56.494Z,100523.64
2023-03-23T16:39:19.721Z,100524.53
2023-03-23T16:39:42.864Z,100523.20
2023-03-23T16:40:07.311Z,100522.94
2023-03-23T16:40:30.381Z,100522.97
2023-03-23T16:40:53.609Z,100519.52
2023-03-23T16:41:16.838Z,100519.52
2023-03-23T16:41:41.580Z,100523.87
2023-03-23T16:42:09.803Z,100523.40
2023-03-23T16:42:33.829Z,100523.15
2023-03-23T16:42:58.473Z,100522.36
2023-03-23T16:43:21.600Z,100525.05
2023-03-23T16:43:45.218Z,100524.80
2023-03-23T16:44:08.533Z,100525.77
2023-03-23T16:44:32.415Z,100525.54
2023-03-23T16:44:55.989Z,100523.67
2023-03-23T16:45:19.820Z,100524.06
2023-03-23T16:45:44.125Z,100522.56
2023-03-23T16:46:07.826Z,100525.29
2023-03-23T16:47:19.071Z,100524.19
2023-03-23T16:47:42.215Z,100527.18
2023-03-23T16:48:05.575Z,100528.62
2023-03-23T16:48:31.175Z,100527.95
2023-03-23T16:48:56.744Z,100525.70
2023-03-23T16:49:20.780Z,100529.64
2023-03-23T16:49:44.206Z,100532.14
2023-03-23T16:50:09.865Z,100532.74
2023-03-23T16:50:33.388Z,100531.42
2023-03-23T16:50:56.827Z,100531.30
2023-03-23T16:51:20.035Z,100531.70
2023-03-23T16:51:43.755Z,100530.52
2023-03-23T16:52:07.155Z,100532.55
2023-03-23T16:52:30.499Z,100534.04
2023-03-23T16:52:53.744Z,100535.39
2023-03-23T16:53:17.337Z,100532.91
2023-03-23T16:53:40.667Z,100533.73
2023-03-23T16:54:03.667Z,100530.92
2023-03-23T16:54:27.706Z,100535.65
2023-03-23T16:54:51.638Z,100533.42
2023-03-23T16:55:17.132Z,100534.21
2023-03-23T16:55:40.811Z,100534.05
2023-03-23T16:56:05.976Z,100532.61
2023-03-23T16:56:31.530Z,100535.21
2023-03-23T16:56:55.240Z,100533.82
2023-03-23T16:57:18.398Z,100538.36
2023-03-23T16:57:43.372Z,100534.41
2023-03-23T16:58:16.318Z,100538.17
2023-03-23T16:58:41.652Z,100535.28
2023-03-23T16:59:05.073Z,100539.05
2023-03-23T16:59:28.697Z,100538.27
2023-03-23T16:59:52.015Z,100535.09
2023-03-23T17:00:16.354Z,100541.01
2023-03-23T17:00:40.806Z,100539.80
2023-03-23T17:01:04.138Z,100537.45
2023-03-23T17:01:32.282Z,100538.63
2023-03-23T17:02:03.821Z,100538.46
2023-03-23T17:02:29.680Z,100538.92
2023-03-23T17:02:57.583Z,100537.27
2023-03-23T17:03:21.629Z,100538.55
2023-03-23T17:03:45.350Z,100535.41
2023-03-23T17:04:08.724Z,100538.52
2023-03-23T17:04:32.656Z,100540.49
2023-03-23T17:04:56.894Z,100539.87
2023-03-23T17:05:20.211Z,100539.73
2023-03-23T17:05:45.018Z,100542.85
2023-03-23T17:06:08.487Z,100540.74
2023-03-23T17:06:31.705Z,100542.23
2023-03-23T17:06:54.920Z,100541.71
2023-03-23T17:07:18.352Z,100540.99
2023-03-23T17:07:41.577Z,100541.06
2023-03-23T17:08:04.896Z,100542.40
2023-03-23T17:08:28.816Z,100541.23
2023-03-23T17:08:54.382Z,100542.26
2023-03-23T17:09:18.054Z,100540.52
2023-03-23T17:09:42.657Z,100542.20
2023-03-23T17:10:08.276Z,100539.34
2023-03-23T17:10:32.061Z,100543.48
2023-03-23T17:10:57.378Z,100545.64
2023-03-23T17:11:20.674Z,100545.10
2023-03-23T17:11:43.818Z,100543.73
2023-03-23T17:12:07.371Z,100542.40
2023-03-23T17:12:30.665Z,100546.39
2023-03-23T17:12:54.356Z,100546.00
2023-03-23T17:13:17.655Z,100544.48
2023-03-23T17:13:42.188Z,100545.63
2023-03-23T17:14:05.301Z,100545.58
2023-03-23T17:14:29.019Z,100546.19
2023-03-23T17:14:53.973Z,100546.98
2023-03-23T17:15:19.654Z,100546.95
2023-03-23T17:15:52.356Z,100550.77
2023-03-23T17:16:17.780Z,100551.08
2023-03-23T17:16:41.255Z,100550.86
2023-03-23T17:17:09.068Z,100550.85
2023-03-23T17:17:32.937Z,100553.76
2023-03-23T17:17:56.755Z,100551.20
2023-03-23T17:18:20.163Z,100554.52
2023-03-23T17:18:43.286Z,100555.45
2023-03-23T17:19:07.341Z,100552.99
2023-03-23T17:19:31.956Z,100551.57
2023-03-23T17:19:55.170Z,100553.38
2023-03-23T17:20:18.490Z,100554.33
2023-03-23T17:20:41.509Z,100556.24
2023-03-23T17:21:04.697Z,100556.80
2023-03-23T17:21:34.175Z,100560.17
2023-03-23T17:21:57.390Z,100559.13
2023-03-23T17:22:23.672Z,100559.00
2023-03-23T17:22:46.907Z,100558.05
2023-03-23T17:23:10.107Z,100557.27
2023-03-23T17:23:33.833Z,100557.90
2023-03-23T17:23:56.844Z,100560.90
2023-03-23T17:24:20.078Z,100560.46
2023-03-23T17:24:44.100Z,100558.77
2023-03-23T17:25:08.466Z,100560.02
2023-03-23T17:25:32.164Z,100561.02
2023-03-23T17:25:55.792Z,100560.73
2023-03-23T17:26:19.013Z,100558.80
2023-03-23T17:26:42.223Z,100556.56
2023-03-23T17:27:05.444Z,100557.78
2023-03-23T17:27:29.989Z,100559.64
2023-03-23T17:27:56.886Z,100560.36
2023-03-23T17:28:28.736Z,100559.79
2023-03-23T17:28:53.205Z,100560.88
2023-03-23T17:29:16.487Z,100558.98
2023-03-23T17:29:40.692Z,100557.52
2023-03-23T17:30:04.934Z,100559.05
2023-03-23T17:30:28.555Z,100559.37
2023-03-23T17:30:53.206Z,100556.52
2023-03-23T17:31:20.252Z,100557.79
2023-03-23T17:31:43.444Z,100557.49
2023-03-23T17:32:06.946Z,100558.45
2023-03-23T17:32:30.454Z,100557.73
2023-03-23T17:32:54.103Z,100556.98
2023-03-23T17:33:17.424Z,100553.85
2023-03-23T17:33:40.644Z,100553.30
2023-03-23T17:34:03.759Z,100555.20
2023-03-23T17:34:27.065Z,100555.17
2023-03-23T17:34:55.904Z,100553.71
2023-03-23T17:35:20.042Z,100556.06
2023-03-23T17:35:45.547Z,100556.70
2023-03-23T17:36:09.068Z,100555.60
2023-03-23T17:36:33.493Z,100555.98
2023-03-23T17:36:57.508Z,100557.91
2023-03-23T17:37:21.253Z,100555.73
2023-03-23T17:37:44.675Z,100557.33
2023-03-23T17:38:07.729Z,100555.84
2023-03-23T17:38:31.529Z,100558.68
2023-03-23T17:38:54.919Z,100558.08
2023-03-23T17:39:17.996Z,100556.49
2023-03-23T17:39:43.599Z,100556.83
2023-03-23T17:40:10.393Z,100556.47
2023-03-23T17:40:33.716Z,100554.55
2023-03-23T17:41:00.510Z,100555.98
2023-03-23T17:41:25.061Z,100558.05
2023-03-23T17:41:50.422Z,100557.54
2023-03-23T17:42:14.051Z,100558.23
2023-03-23T17:42:39.002Z,100558.21
2023-03-23T17:43:02.562Z,100558.21
2023-03-23T17:43:26.680Z,100555.73
2023-03-23T17:43:49.779Z,100557.96
2023-03-23T17:44:13.093Z,100557.63
2023-03-23T17:44:36.617Z,100557.04
2023-03-23T17:44:59.670Z,100556.97
2023-03-23T17:45:23.255Z,100557.61
2023-03-23T17:45:47.276Z,100554.23
2023-03-23T17:46:10.834Z,100557.75
2023-03-23T17:46:34.475Z,100554.54
2023-03-23T17:46:58.081Z,100556.96
2023-03-23T17:47:23.996Z,100554.27
2023-03-23T17:47:47.907Z,100560.83
2023-03-23T17:48:13.549Z,100557.98
2023-03-23T17:48:36.666Z,100557.59
2023-03-23T17:49:02.208Z,100557.59
2023-03-23T17:49:27.301Z,100558.80
2023-03-23T17:49:51.330Z,100557.54
2023-03-23T17:50:14.435Z,100554.67
2023-03-23T17:50:39.388Z,100555.22
2023-03-23T17:51:02.605Z,100556.75
2023-03-23T17:51:26.124Z,100553.55
2023-03-23T17:51:49.651Z,100555.73
2023-03-23T17:52:12.662Z,100556.06
2023-03-23T17:52:36.394Z,100553.94
2023-03-23T17:53:01.659Z,100557.10
2023-03-23T17:53:25.685Z,100556.55
2023-03-23T17:54:01.659Z,100555.38
2023-03-23T17:54:31.154Z,100557.72
2023-03-23T17:54:55.629Z,100557.33
2023-03-23T17:55:22.414Z,100557.92
2023-03-23T17:55:46.702Z,100558.95
2023-03-23T17:56:10.550Z,100558.23
2023-03-23T17:56:34.416Z,100561.76
2023-03-23T17:56:58.896Z,100560.74
2023-03-23T17:57:22.169Z,100558.57
2023-03-23T17:57:46.044Z,100559.44
2023-03-23T17:58:09.699Z,100560.28
2023-03-23T17:58:32.922Z,100560.98
2023-03-23T17:58:56.132Z,100558.19
2023-03-23T17:59:19.451Z,100560.58
2023-03-23T17:59:42.462Z,100562.55
2023-03-23T18:00:09.439Z,100563.05
2023-03-23T18:00:32.783Z,100562.85
2023-03-23T18:00:56.751Z,100563.79
2023-03-23T18:01:22.967Z,100560.48
2023-03-23T18:01:49.117Z,100560.44
2023-03-23T18:02:14.210Z,100562.00
2023-03-23T18:02:38.027Z,100563.16
2023-03-23T18:03:01.293Z,100561.17
2023-03-23T18:03:25.465Z,100560.30
2023-03-23T18:03:48.742Z,100561.34
2023-03-23T18:04:11.954Z,100558.79
2023-03-23T18:04:35.306Z,100558.75
2023-03-23T18:04:59.835Z,100564.71
2023-03-23T18:05:24.723Z,100564.38
2023-03-23T18:05:48.126Z,100564.14
2023-03-23T18:06:11.635Z,100566.02
2023-03-23T18:06:34.938Z,100564.17
2023-03-23T18:06:58.052Z,100565.58
2023-03-23T18:07:23.743Z,100564.64
2023-03-23T18:07:46.936Z,100563.59
2023-03-23T18:08:11.181Z,100565.15
2023-03-23T18:08:35.720Z,100561.73
2023-03-23T18:08:59.144Z,100565.41
2023-03-23T18:09:22.973Z,100566.06
2023-03-23T18:09:46.801Z,100564.82
2023-03-23T18:10:13.107Z,100564.21
2023-03-23T18:10:37.630Z,100563.95
2023-03-23T18:11:00.956Z,100565.02
2023-03-23T18:11:24.168Z,100565.61
2023-03-23T18:11:47.388Z,100567.59
2023-03-23T18:12:10.602Z,100563.65
2023-03-23T18:12:33.649Z,100564.29
2023-03-23T18:12:56.825Z,100566.31
2023-03-23T18:13:19.856Z,100567.86
2023-03-23T18:13:43.256Z,100563.91
2023-03-23T18:14:07.706Z,100564.46
2023-03-23T18:14:32.251Z,100568.77
2023-03-23T18:14:59.490Z,100565.74
2023-03-23T18:15:22.981Z,100569.05
2023-03-23T18:16:07.243Z,100568.94
2023-03-23T18:16:34.304Z,100568.06
2023-03-23T18:16:59.130Z,100568.10
2023-03-23T18:17:23.186Z,100566.80
2023-03-23T18:17:48.407Z,100569.79
2023-03-23T18:18:11.878Z,100569.62
2023-03-23T18:18:35.235Z,100569.63
2023-03-23T18:18:58.218Z,100570.98
2023-03-23T18:19:21.460Z,100571.48
2023-03-23T18:19:44.596Z,100570.35
2023-03-23T18:20:08.800Z,100570.30
2023-03-23T18:20:31.892Z,100571.64
2023-03-23T18:21:00.099Z,100570.17
2023-03-23T18:21:23.501Z,100568.38
2023-03-23T18:21:53.108Z,100570.52
2023-03-23T18:22:18.905Z,100569.04
2023-03-23T18:22:42.876Z,100571.23
2023-03-23T18:23:07.101Z,100563.52
2023-03-23T18:23:39.037Z,100570.23
2023-03-23T18:24:06.746Z,100570.36
2023-03-23T18:24:29.987Z,100574.26
2023-03-23T18:24:54.388Z,100573.98
2023-03-23T18:25:17.955Z,100574.11
2023-03-23T18:25:41.129Z,100574.54
2023-03-23T18:26:05.595Z,100573.84
2023-03-23T18:26:28.998Z,100572.54
2023-03-23T18:26:51.949Z,100575.30
2023-03-23T18:27:15.016Z,100573.98
2023-03-23T18:27:40.684Z,100574.23
2023-03-23T18:28:05.489Z,100572.98
2023-03-23T18:28:31.720Z,100572.52
2023-03-23T18:28:56.382Z,100573.72
2023-03-23T18:29:19.689Z,100570.66
2023-03-23T18:29:42.696Z,100571.94
2023-03-23T18:30:07.142Z,100572.93
2023-03-23T18:30:30.766Z,100568.10
2023-03-23T18:30:53.884Z,100568.58
2023-03-23T18:31:17.330Z,100567.44
2023-03-23T18:31:40.794Z,100571.02
2023-03-23T18:32:04.254Z,100571.30
2023-03-23T18:32:28.013Z,100570.21
2023-03-23T18:32:51.214Z,100571.21
2023-03-23T18:33:14.218Z,100570.98
2023-03-23T18:33:37.739Z,100572.83
2023-03-23T18:34:00.861Z,100569.41
2023-03-23T18:34:24.569Z,100573.02
2023-03-23T18:34:48.830Z,100574.05
2023-03-23T18:35:11.927Z,100572.35
2023-03-23T18:35:35.062Z,100570.66
2023-03-23T18:35:59.377Z,100568.86
2023-03-23T18:36:23.564Z,100571.79
2023-03-23T18:36:46.733Z,100571.85
2023-03-23T18:37:09.675Z,100573.72
2023-03-23T18:37:33.058Z,100576.44
2023-03-23T18:37:56.235Z,100576.06
2023-03-23T18:38:19.621Z,100577.02
2023-03-23T18:38:43.898Z,100574.27
2023-03-23T18:39:07.150Z,100575.98
2023-03-23T18:39:33.934Z,100577.34
2023-03-23T18:39:57.370Z,100578.33
2023-03-23T18:40:21.204Z,100576.50
2023-03-23T18:40:45.652Z,100579.09
2023-03-23T18:41:10.508Z,100577.95
2023-03-23T18:41:33.890Z,100579.69
2023-03-23T18:41:57.131Z,100576.78
2023-03-23T18:42:20.554Z,100577.98
2023-03-23T18:42:45.207Z,100573.89
2023-03-23T18:43:08.214Z,100577.34
2023-03-23T18:43:31.539Z,100577.63
2023-03-23T18:43:56.251Z,100576.37
2023-03-23T18:44:21.340Z,100577.34
2023-03-23T18:44:44.451Z,100576.09
2023-03-23T18:45:08.898Z,100579.23
2023-03-23T18:45:33.254Z,100577.44
2023-03-23T18:45:56.891Z,100575.64
2023-03-23T18:46:20.201Z,100574.34
2023-03-23T18:46:43.704Z,100576.06
2023-03-23T18:47:06.905Z,100573.88
2023-03-23T18:47:30.968Z,100574.00
2023-03-23T18:47:54.613Z,100572.03
2023-03-23T18:48:17.902Z,100572.66
2023-03-23T18:48:41.321Z,100573.48
2023-03-23T18:49:04.539Z,100575.03
2023-03-23T18:49:33.684Z,100574.10
2023-03-23T18:49:56.905Z,100573.50
2023-03-23T18:50:22.901Z,100572.83
2023-03-23T18:50:47.146Z,100575.52
2023-03-23T18:51:11.482Z,100572.05
2023-03-23T18:51:37.887Z,100572.02
2023-03-23T18:52:01.163Z,100570.73
2023-03-23T18:52:26.686Z,100573.34
2023-03-23T18:52:50.378Z,100569.73
2023-03-23T18:53:15.008Z,100572.33
2023-03-23T18:53:38.223Z,100571.52
2023-03-23T18:54:01.361Z,100571.66
2023-03-23T18:54:25.987Z,100572.11
2023-03-23T18:54:49.306Z,100570.27
2023-03-23T18:55:16.306Z,100568.98
2023-03-23T18:55:40.803Z,100573.48
2023-03-23T18:56:12.052Z,100568.92
2023-03-23T18:56:35.340Z,100568.88
2023-03-23T18:57:00.443Z,100571.61
2023-03-23T18:57:24.144Z,100570.48
2023-03-23T18:57:47.250Z,100568.27
2023-03-23T18:58:11.299Z,100570.83
2023-03-23T18:58:34.324Z,100572.34
2023-03-23T18:58:57.321Z,100574.77
2023-03-23T18:59:20.332Z,100571.98
2023-03-23T18:59:43.454Z,100573.67
2023-03-23T19:00:07.183Z,100570.25
2023-03-23T19:00:30.628Z,100567.98
2023-03-23T19:00:56.910Z,100572.23
2023-03-23T19:01:20.742Z,100567.77
2023-03-23T19:01:44.122Z,100571.05
2023-03-23T19:02:07.473Z,100568.14
2023-03-23T19:02:33.153Z,100568.54
2023-03-23T19:02:56.411Z,100569.94
2023-03-23T19:03:19.875Z,100569.70
2023-03-23T19:03:43.803Z,100569.21
2023-03-23T19:04:07.350Z,100571.58
2023-03-23T19:04:34.115Z,100568.91
2023-03-23T19:04:57.636Z,100569.00
2023-03-23T19:05:21.077Z,100569.45
2023-03-23T19:05:45.572Z,100572.95
2023-03-23T19:06:17.652Z,100570.64
2023-03-23T19:06:40.729Z,100569.77
2023-03-23T19:07:03.744Z,100566.70
2023-03-23T19:07:27.433Z,100572.21
2023-03-23T19:07:53.863Z,100574.27
2023-03-23T19:08:18.409Z,100571.61
2023-03-23T19:08:41.335Z,100573.33
2023-03-23T19:09:09.230Z,100570.63
2023-03-23T19:09:34.493Z,100572.81
2023-03-23T19:10:01.293Z,100571.02
2023-03-23T19:10:25.009Z,100573.96
2023-03-23T19:10:48.033Z,100573.14
2023-03-23T19:11:12.785Z,100571.45
2023-03-23T19:11:37.123Z,100571.20
2023-03-23T19:12:01.068Z,100572.83
2023-03-23T19:12:24.177Z,100570.73
2023-03-23T19:12:48.520Z,100571.30
2023-03-23T19:13:11.694Z,100570.42
2023-03-23T19:13:37.570Z,100570.16
2023-03-23T19:14:03.384Z,100569.52
2023-03-23T19:14:27.313Z,100578.05
2023-03-23T19:14:51.856Z,100573.53
2023-03-23T19:15:15.535Z,100573.46
2023-03-23T19:15:39.960Z,100571.23
2023-03-23T19:16:03.717Z,100575.73
2023-03-23T19:16:26.867Z,100573.24
2023-03-23T19:16:52.746Z,100576.79
2023-03-23T19:17:17.404Z,100577.27
2023-03-23T19:17:46.674Z,100575.46
2023-03-23T19:18:10.744Z,100577.89
2023-03-23T19:18:35.938Z,100575.67
2023-03-23T19:18:59.976Z,100576.30
2023-03-23T19:19:24.959Z,100574.36
2023-03-23T19:19:49.076Z,100574.98
2023-03-23T19:20:16.005Z,100576.00
2023-03-23T19:21:12.610Z,100576.48
2023-03-23T19:21:32.959Z,100578.14
2023-03-23T19:21:56.636Z,100573.48
2023-03-23T19:22:19.820Z,100573.45
2023-03-23T19:22:43.034Z,100573.79
2023-03-23T19:23:06.150Z,100573.92
2023-03-23T19:23:29.477Z,100572.59
2023-03-23T19:23:52.884Z,100572.35
2023-03-23T19:24:15.965Z,100572.66
2023-03-23T19:24:39.726Z,100570.14
2023-03-23T19:25:03.865Z,100569.89
2023-03-23T19:25:28.000Z,100570.74
2023-03-23T19:25:52.473Z,100571.38
2023-03-23T19:26:19.784Z,100571.00
2023-03-23T19:26:43.570Z,100570.98
2023-03-23T19:27:08.122Z,100568.56
2023-03-23T19:27:31.426Z,100567.45
2023-03-23T19:29:03.783Z,100570.31
2023-03-23T19:29:40.318Z,100563.48
2023-03-23T19:30:05.082Z,100566.44
2023-03-23T19:30:29.099Z,100571.30
2023-03-23T19:30:56.924Z,100570.50
2023-03-23T19:31:25.180Z,100573.87
2023-03-23T19:31:48.640Z,100570.23
2023-03-23T19:32:12.190Z,100574.29
2023-03-23T19:32:37.121Z,100572.05
2023-03-23T19:33:00.354Z,100572.45
2023-03-23T19:33:23.988Z,100571.80
2023-03-23T19:33:47.308Z,100573.35
2023-03-23T19:34:10.736Z,100573.61
2023-03-23T19:34:33.948Z,100570.41
2023-03-23T19:34:57.378Z,100572.07
2023-03-23T19:35:20.918Z,100573.24
2023-03-23T19:35:46.313Z,100571.08
2023-03-23T19:36:14.408Z,100568.67
2023-03-23T19:36:40.532Z,100571.13
2023-03-23T19:37:06.311Z,100571.21
2023-03-23T19:37:34.856Z,100569.62
2023-03-23T19:37:58.318Z,100571.11
2023-03-23T19:38:22.147Z,100571.75
2023-03-23T19:38:45.560Z,100569.89
2023-03-23T19:39:09.028Z,100567.86
2023-03-23T19:39:33.301Z,100568.09
2023-03-23T19:39:56.333Z,100569.39
2023-03-23T19:40:36.641Z,100571.50
2023-03-23T19:41:04.934Z,100570.17
2023-03-23T19:41:29.213Z,100572.52
2023-03-23T19:41:54.241Z,100570.46
2023-03-23T19:42:18.582Z,100570.54
2023-03-23T19:42:42.412Z,100569.69
2023-03-23T19:43:06.083Z,100573.29
2023-03-23T19:43:30.423Z,100575.67
2023-03-23T19:43:53.923Z,100573.46
2023-03-23T19:44:18.029Z,100572.98
2023-03-23T19:44:41.457Z,100574.50
2023-03-23T19:45:04.774Z,100572.69
2023-03-23T19:45:28.193Z,100573.16
2023-03-23T19:45:51.408Z,100571.60
2023-03-23T19:46:14.791Z,100571.09
2023-03-23T19:46:38.082Z,100572.38
2023-03-23T19:47:01.453Z,100571.02
2023-03-23T19:47:25.988Z,100571.94
2023-03-23T19:47:49.608Z,100570.70
2023-03-23T19:48:13.122Z,100570.83
2023-03-23T19:48:39.610Z,100573.86
2023-03-23T19:49:03.605Z,100571.19
2023-03-23T19:49:28.139Z,100570.97
2023-03-23T19:49:51.854Z,100571.61
2023-03-23T19:50:16.645Z,100569.88
2023-03-23T19:50:40.698Z,100570.91
2023-03-23T19:51:07.027Z,100571.56
2023-03-23T19:51:30.693Z,100570.59
2023-03-23T19:52:06.485Z,100568.56
2023-03-23T19:52:32.430Z,100570.48
2023-03-23T19:52:58.400Z,100568.48
2023-03-23T19:53:23.783Z,100571.73
2023-03-23T19:53:47.596Z,100569.21
2023-03-23T19:54:10.896Z,100570.88
2023-03-23T19:54:35.792Z,100569.16
2023-03-23T19:54:59.268Z,100570.75
2023-03-23T19:55:23.262Z,100571.34
2023-03-23T19:55:47.015Z,100570.00
2023-03-23T19:56:15.812Z,100572.05
2023-03-23T19:56:39.068Z,100567.23
2023-03-23T19:57:04.093Z,100570.01
2023-03-23T19:57:27.901Z,100570.42
2023-03-23T19:57:51.526Z,100569.95
2023-03-23T19:58:14.638Z,100569.23
2023-03-23T19:58:41.619Z,100569.14
2023-03-23T19:59:08.138Z,100571.18
2023-03-23T19:59:31.445Z,100568.50
2023-03-23T19:59:54.457Z,100570.50
2023-03-23T20:00:18.391Z,100568.14
2023-03-23T20:01:08.618Z,100568.52
2023-03-23T20:01:33.127Z,100566.84
2023-03-23T20:01:58.537Z,100567.13
2023-03-23T20:02:23.056Z,100568.05
2023-03-23T20:02:47.539Z,100568.04
2023-03-23T20:03:10.739Z,100569.16
2023-03-23T20:03:36.233Z,100569.75
2023-03-23T20:04:04.919Z,100568.09
2023-03-23T20:04:28.670Z,100568.70
2023-03-23T20:04:54.413Z,100571.45
2023-03-23T20:05:18.595Z,100570.09
2023-03-23T20:05:42.108Z,100570.17
2023-03-23T20:06:07.357Z,100571.48
2023-03-23T20:06:32.508Z,100573.35
2023-03-23T20:06:56.331Z,100569.86
2023-03-23T20:07:21.338Z,100574.88
2023-03-23T20:07:48.648Z,100570.36
2023-03-23T20:08:14.966Z,100569.90
2023-03-23T20:08:40.558Z,100576.15
2023-03-23T20:09:05.044Z,100573.06
2023-03-23T20:09:29.610Z,100573.79
2023-03-23T20:09:54.198Z,100571.26
2023-03-23T20:10:19.455Z,100571.12
2023-03-23T20:10:46.457Z,100572.23
2023-03-23T20:11:13.093Z,100572.70
2023-03-23T20:11:36.407Z,100572.55
2023-03-23T20:12:01.292Z,100571.09
2023-03-23T20:12:24.725Z,100570.92
2023-03-23T20:12:48.176Z,100568.25
2023-03-23T20:13:11.768Z,100571.19
2023-03-23T20:13:36.437Z,100569.80
2023-03-23T20:14:00.526Z,100571.50
2023-03-23T20:14:25.853Z,100566.46
2023-03-23T20:14:49.030Z,100570.42
2023-03-23T20:15:12.586Z,100567.99
2023-03-23T20:15:35.898Z,100569.11
2023-03-23T20:16:00.629Z,100569.19
2023-03-23T20:16:24.817Z,100566.42
2023-03-23T20:16:48.118Z,100566.73
2023-03-23T20:17:14.787Z,100570.41
2023-03-23T20:17:40.721Z,100567.97
2023-03-23T20:18:07.991Z,100572.56
2023-03-23T20:18:34.360Z,100568.35
2023-03-23T20:19:00.104Z,100570.92
2023-03-23T20:19:23.653Z,100568.62
2023-03-23T20:19:47.090Z,100571.98
2023-03-23T20:20:11.118Z,100570.95
2023-03-23T20:20:36.819Z,100571.70
2023-03-23T20:21:03.901Z,100573.85
2023-03-23T20:21:27.626Z,100568.14
2023-03-23T20:21:52.293Z,100568.45
2023-03-23T20:22:15.689Z,100567.54
2023-03-23T20:22:38.857Z,100569.80
2023-03-23T20:23:02.222Z,100568.27
2023-03-23T20:23:25.439Z,100569.02
2023-03-23T20:23:49.887Z,100571.34
2023-03-23T20:24:21.755Z,100572.36
2023-03-23T20:24:47.423Z,100571.02
2023-03-23T20:25:10.847Z,100568.33
2023-03-23T20:25:35.228Z,100570.66
2023-03-23T20:25:59.262Z,100567.05
2023-03-23T20:26:24.519Z,100567.11
2023-03-23T20:26:47.699Z,100569.52
2023-03-23T20:27:11.568Z,100567.48
2023-03-23T20:27:35.813Z,100569.17
2023-03-23T20:27:58.780Z,100566.77
2023-03-23T20:28:22.031Z,100566.37
2023-03-23T20:28:45.851Z,100569.57
2023-03-23T20:29:09.314Z,100567.17
2023-03-23T20:29:33.563Z,100566.92
2023-03-23T20:29:57.248Z,100567.18
2023-03-23T20:30:21.427Z,100566.73
2023-03-23T20:30:46.753Z,100567.01
2023-03-23T20:31:36.783Z,100568.35
2023-03-23T20:32:00.490Z,100566.85
2023-03-23T20:32:23.573Z,100568.16
2023-03-23T20:32:46.726Z,100568.92
2023-03-23T20:33:10.799Z,100568.78
2023-03-23T20:33:35.710Z,100566.05
2023-03-23T20:34:01.995Z,100564.98
2023-03-23T20:34:29.211Z,100566.14
2023-03-23T20:34:52.210Z,100565.38
2023-03-23T20:35:16.468Z,100564.20
2023-03-23T20:35:40.116Z,100566.58
2023-03-23T20:36:03.576Z,100564.99
2023-03-23T20:36:29.827Z,100565.05
2023-03-23T20:36:54.839Z,100563.71
2023-03-23T20:37:20.970Z,100565.96
2023-03-23T20:37:45.364Z,100564.42
2023-03-23T20:38:08.678Z,100563.96
2023-03-23T20:38:35.457Z,100561.79
2023-03-23T20:38:59.000Z,100563.44
2023-03-23T20:39:23.579Z,100564.38
2023-03-23T20:39:48.199Z,100563.27
2023-03-23T20:40:12.532Z,100565.06
2023-03-23T20:40:35.848Z,100562.70
2023-03-23T20:40:59.885Z,100563.67
2023-03-23T20:41:24.432Z,100561.68